sensor_id;sensor_type;location;lat;lon;timestamp;P1;durP1;ratioP1;P2;durP2;ratioP2
9374;SDS011;4727;51.202;6.344;2023-12-20T00:01:38;4.57;;;2.90;;
9374;SDS011;4727;51.202;6.344;2023-12-20T00:04:04;8.03;;;3.17;;
9374;SDS011;4727;51.202;6.344;2023-12-20T00:06:30;5.57;;;3.77;;
9374;SDS011;4727;51.202;6.344;2023-12-20T00:08:56;6.37;;;4.33;;
9374;SDS011;4727;51.202;6.344;2023-12-20T00:11:25;4.17;;;3.73;;
9374;SDS011;4727;51.202;6.344;2023-12-20T00:13:51;8.27;;;4.87;;
9374;SDS011;4727;51.202;6.344;2023-12-20T00:16:18;6.47;;;4.63;;
9374;SDS011;4727;51.202;6.344;2023-12-20T00:18:44;6.43;;;4.57;;
9374;SDS011;4727;51.202;6.344;2023-12-20T00:21:10;8.20;;;5.40;;
9374;SDS011;4727;51.202;6.344;2023-12-20T00:23:36;10.30;;;5.67;;
9374;SDS011;4727;51.202;6.344;2023-12-20T00:26:02;9.10;;;5.33;;
9374;SDS011;4727;51.202;6.344;2023-12-20T00:28:27;8.13;;;5.03;;
9374;SDS011;4727;51.202;6.344;2023-12-20T00:30:53;11.30;;;6.93;;
9374;SDS011;4727;51.202;6.344;2023-12-20T00:33:19;10.07;;;5.40;;
9374;SDS011;4727;51.202;6.344;2023-12-20T00:35:45;9.43;;;5.30;;
9374;SDS011;4727;51.202;6.344;2023-12-20T00:38:11;9.87;;;5.40;;
9374;SDS011;4727;51.202;6.344;2023-12-20T00:40:37;7.63;;;4.97;;
9374;SDS011;4727;51.202;6.344;2023-12-20T00:43:03;7.57;;;5.10;;
9374;SDS011;4727;51.202;6.344;2023-12-20T00:45:29;8.93;;;4.77;;
9374;SDS011;4727;51.202;6.344;2023-12-20T00:47:55;6.87;;;4.73;;
9374;SDS011;4727;51.202;6.344;2023-12-20T00:50:21;9.43;;;4.23;;
9374;SDS011;4727;51.202;6.344;2023-12-20T00:52:47;5.37;;;3.80;;
9374;SDS011;4727;51.202;6.344;2023-12-20T00:55:13;8.03;;;4.30;;
9374;SDS011;4727;51.202;6.344;2023-12-20T00:57:39;5.47;;;3.77;;
9374;SDS011;4727;51.202;6.344;2023-12-20T01:00:05;9.27;;;4.87;;
9374;SDS011;4727;51.202;6.344;2023-12-20T01:02:34;8.07;;;4.47;;
9374;SDS011;4727;51.202;6.344;2023-12-20T01:05:00;6.97;;;4.27;;
9374;SDS011;4727;51.202;6.344;2023-12-20T01:07:26;7.27;;;4.43;;
9374;SDS011;4727;51.202;6.344;2023-12-20T01:09:52;8.60;;;3.93;;
9374;SDS011;4727;51.202;6.344;2023-12-20T01:12:18;5.43;;;3.50;;
9374;SDS011;4727;51.202;6.344;2023-12-20T01:14:45;4.20;;;3.53;;
9374;SDS011;4727;51.202;6.344;2023-12-20T01:17:11;7.83;;;4.13;;
9374;SDS011;4727;51.202;6.344;2023-12-20T01:55:19;3.27;;;2.30;;
9374;SDS011;4727;51.202;6.344;2023-12-20T01:57:45;6.03;;;2.93;;
9374;SDS011;4727;51.202;6.344;2023-12-20T02:00:12;4.47;;;1.93;;
9374;SDS011;4727;51.202;6.344;2023-12-20T02:02:39;3.23;;;1.73;;
9374;SDS011;4727;51.202;6.344;2023-12-20T02:05:06;4.37;;;2.60;;
9374;SDS011;4727;51.202;6.344;2023-12-20T02:07:33;5.43;;;2.10;;
9374;SDS011;4727;51.202;6.344;2023-12-20T02:10:02;4.93;;;2.23;;
9374;SDS011;4727;51.202;6.344;2023-12-20T02:12:29;2.10;;;1.80;;
9374;SDS011;4727;51.202;6.344;2023-12-20T02:14:55;2.90;;;1.60;;
9374;SDS011;4727;51.202;6.344;2023-12-20T02:17:21;4.67;;;1.67;;
9374;SDS011;4727;51.202;6.344;2023-12-20T02:19:48;2.97;;;1.47;;
9374;SDS011;4727;51.202;6.344;2023-12-20T02:22:14;1.30;;;1.20;;
9374;SDS011;4727;51.202;6.344;2023-12-20T02:24:40;4.13;;;1.83;;
9374;SDS011;4727;51.202;6.344;2023-12-20T02:27:06;3.63;;;1.93;;
9374;SDS011;4727;51.202;6.344;2023-12-20T02:29:33;4.77;;;1.67;;
9374;SDS011;4727;51.202;6.344;2023-12-20T02:31:59;5.43;;;2.43;;
9374;SDS011;4727;51.202;6.344;2023-12-20T02:34:25;6.00;;;2.50;;
9374;SDS011;4727;51.202;6.344;2023-12-20T02:36:51;2.00;;;1.90;;
9374;SDS011;4727;51.202;6.344;2023-12-20T02:39:17;3.60;;;2.20;;
9374;SDS011;4727;51.202;6.344;2023-12-20T02:41:43;2.17;;;1.93;;
9374;SDS011;4727;51.202;6.344;2023-12-20T02:44:09;4.20;;;1.93;;
9374;SDS011;4727;51.202;6.344;2023-12-20T02:46:35;9.17;;;2.33;;
9374;SDS011;4727;51.202;6.344;2023-12-20T02:49:01;4.23;;;1.87;;
9374;SDS011;4727;51.202;6.344;2023-12-20T02:51:27;3.03;;;2.17;;
9374;SDS011;4727;51.202;6.344;2023-12-20T02:53:53;4.77;;;2.27;;
9374;SDS011;4727;51.202;6.344;2023-12-20T02:56:19;4.97;;;2.00;;
9374;SDS011;4727;51.202;6.344;2023-12-20T02:58:45;13.23;;;2.97;;
9374;SDS011;4727;51.202;6.344;2023-12-20T03:01:11;4.33;;;2.63;;
9374;SDS011;4727;51.202;6.344;2023-12-20T03:03:37;5.53;;;2.00;;
9374;SDS011;4727;51.202;6.344;2023-12-20T03:06:03;2.03;;;1.93;;
9374;SDS011;4727;51.202;6.344;2023-12-20T03:08:29;5.77;;;3.00;;
9374;SDS011;4727;51.202;6.344;2023-12-20T03:10:55;4.20;;;2.13;;
9374;SDS011;4727;51.202;6.344;2023-12-20T03:13:21;5.80;;;2.07;;
9374;SDS011;4727;51.202;6.344;2023-12-20T03:15:46;2.20;;;2.07;;
9374;SDS011;4727;51.202;6.344;2023-12-20T03:18:12;3.07;;;2.10;;
9374;SDS011;4727;51.202;6.344;2023-12-20T03:20:38;1.93;;;1.80;;
9374;SDS011;4727;51.202;6.344;2023-12-20T03:23:06;5.20;;;2.80;;
9374;SDS011;4727;51.202;6.344;2023-12-20T03:25:32;5.13;;;2.20;;
9374;SDS011;4727;51.202;6.344;2023-12-20T03:27:58;2.33;;;2.13;;
9374;SDS011;4727;51.202;6.344;2023-12-20T03:30:24;5.13;;;2.23;;
9374;SDS011;4727;51.202;6.344;2023-12-20T03:32:50;4.00;;;2.43;;
9374;SDS011;4727;51.202;6.344;2023-12-20T03:35:16;10.30;;;2.87;;
9374;SDS011;4727;51.202;6.344;2023-12-20T03:37:42;4.80;;;2.53;;
9374;SDS011;4727;51.202;6.344;2023-12-20T03:40:08;6.10;;;2.00;;
9374;SDS011;4727;51.202;6.344;2023-12-20T03:42:34;8.57;;;2.27;;
9374;SDS011;4727;51.202;6.344;2023-12-20T03:45:00;6.67;;;2.80;;
9374;SDS011;4727;51.202;6.344;2023-12-20T03:47:26;7.27;;;2.93;;
9374;SDS011;4727;51.202;6.344;2023-12-20T03:49:52;3.87;;;3.17;;
9374;SDS011;4727;51.202;6.344;2023-12-20T03:52:18;7.13;;;2.30;;
9374;SDS011;4727;51.202;6.344;2023-12-20T03:54:44;7.63;;;2.83;;
9374;SDS011;4727;51.202;6.344;2023-12-20T03:57:10;3.23;;;2.70;;
9374;SDS011;4727;51.202;6.344;2023-12-20T03:59:37;2.87;;;2.67;;
9374;SDS011;4727;51.202;6.344;2023-12-20T04:02:03;7.30;;;2.87;;
9374;SDS011;4727;51.202;6.344;2023-12-20T04:04:29;3.10;;;2.37;;
9374;SDS011;4727;51.202;6.344;2023-12-20T04:06:55;8.00;;;3.10;;
9374;SDS011;4727;51.202;6.344;2023-12-20T04:09:21;5.27;;;2.10;;
9374;SDS011;4727;51.202;6.344;2023-12-20T04:11:47;8.40;;;3.10;;
9374;SDS011;4727;51.202;6.344;2023-12-20T04:14:13;2.47;;;2.27;;
9374;SDS011;4727;51.202;6.344;2023-12-20T04:16:39;6.90;;;3.50;;
9374;SDS011;4727;51.202;6.344;2023-12-20T04:19:05;5.17;;;3.23;;
9374;SDS011;4727;51.202;6.344;2023-12-20T04:21:31;6.27;;;3.30;;
9374;SDS011;4727;51.202;6.344;2023-12-20T04:23:57;4.43;;;2.90;;
9374;SDS011;4727;51.202;6.344;2023-12-20T04:26:23;5.77;;;2.83;;
9374;SDS011;4727;51.202;6.344;2023-12-20T04:28:49;3.13;;;2.83;;
9374;SDS011;4727;51.202;6.344;2023-12-20T04:31:15;4.10;;;2.30;;
9374;SDS011;4727;51.202;6.344;2023-12-20T04:33:41;5.40;;;2.20;;
9374;SDS011;4727;51.202;6.344;2023-12-20T04:36:06;5.47;;;2.67;;
9374;SDS011;4727;51.202;6.344;2023-12-20T04:38:34;3.57;;;2.00;;
9374;SDS011;4727;51.202;6.344;2023-12-20T04:41:00;6.33;;;2.50;;
9374;SDS011;4727;51.202;6.344;2023-12-20T04:43:25;7.00;;;2.83;;
9374;SDS011;4727;51.202;6.344;2023-12-20T04:45:51;3.93;;;2.87;;
9374;SDS011;4727;51.202;6.344;2023-12-20T04:48:17;6.27;;;3.00;;
9374;SDS011;4727;51.202;6.344;2023-12-20T04:50:43;6.07;;;2.67;;
9374;SDS011;4727;51.202;6.344;2023-12-20T04:53:09;9.93;;;2.93;;
9374;SDS011;4727;51.202;6.344;2023-12-20T04:55:35;4.40;;;2.50;;
9374;SDS011;4727;51.202;6.344;2023-12-20T04:58:01;4.03;;;3.53;;
9374;SDS011;4727;51.202;6.344;2023-12-20T05:00:27;10.27;;;3.73;;
9374;SDS011;4727;51.202;6.344;2023-12-20T05:02:53;4.60;;;3.13;;
9374;SDS011;4727;51.202;6.344;2023-12-20T05:05:20;4.00;;;3.37;;
9374;SDS011;4727;51.202;6.344;2023-12-20T05:07:45;3.43;;;2.43;;
9374;SDS011;4727;51.202;6.344;2023-12-20T05:10:11;5.00;;;2.13;;
9374;SDS011;4727;51.202;6.344;2023-12-20T05:12:37;8.23;;;3.10;;
9374;SDS011;4727;51.202;6.344;2023-12-20T05:15:05;4.40;;;2.77;;
9374;SDS011;4727;51.202;6.344;2023-12-20T05:17:31;3.20;;;1.97;;
9374;SDS011;4727;51.202;6.344;2023-12-20T05:33:10;8.23;;;3.30;;
9374;SDS011;4727;51.202;6.344;2023-12-20T05:35:36;6.00;;;2.53;;
9374;SDS011;4727;51.202;6.344;2023-12-20T05:38:02;3.47;;;2.70;;
9374;SDS011;4727;51.202;6.344;2023-12-20T05:43:01;7.13;;;3.20;;
9374;SDS011;4727;51.202;6.344;2023-12-20T05:45:27;2.27;;;2.10;;
9374;SDS011;4727;51.202;6.344;2023-12-20T05:47:54;5.07;;;2.43;;
9374;SDS011;4727;51.202;6.344;2023-12-20T05:50:20;5.70;;;3.00;;
9374;SDS011;4727;51.202;6.344;2023-12-20T05:52:46;4.87;;;2.73;;
9374;SDS011;4727;51.202;6.344;2023-12-20T05:55:12;5.50;;;3.20;;
9374;SDS011;4727;51.202;6.344;2023-12-20T05:57:38;3.63;;;2.70;;
9374;SDS011;4727;51.202;6.344;2023-12-20T06:00:04;6.47;;;3.30;;
9374;SDS011;4727;51.202;6.344;2023-12-20T06:02:31;4.47;;;2.77;;
9374;SDS011;4727;51.202;6.344;2023-12-20T06:04:57;7.10;;;2.50;;
9374;SDS011;4727;51.202;6.344;2023-12-20T06:07:23;7.13;;;2.87;;
9374;SDS011;4727;51.202;6.344;2023-12-20T06:09:49;3.97;;;2.33;;
9374;SDS011;4727;51.202;6.344;2023-12-20T06:12:15;7.83;;;3.30;;
9374;SDS011;4727;51.202;6.344;2023-12-20T06:14:41;5.50;;;2.67;;
9374;SDS011;4727;51.202;6.344;2023-12-20T06:17:07;7.03;;;3.67;;
9374;SDS011;4727;51.202;6.344;2023-12-20T06:19:33;4.73;;;1.87;;
9374;SDS011;4727;51.202;6.344;2023-12-20T06:21:59;2.80;;;2.53;;
9374;SDS011;4727;51.202;6.344;2023-12-20T06:24:25;2.70;;;2.47;;
9374;SDS011;4727;51.202;6.344;2023-12-20T06:26:53;3.87;;;2.40;;
9374;SDS011;4727;51.202;6.344;2023-12-20T06:29:20;3.10;;;2.30;;
9374;SDS011;4727;51.202;6.344;2023-12-20T06:31:46;5.80;;;3.37;;
9374;SDS011;4727;51.202;6.344;2023-12-20T06:34:12;4.63;;;3.53;;
9374;SDS011;4727;51.202;6.344;2023-12-20T06:36:38;10.93;;;4.10;;
9374;SDS011;4727;51.202;6.344;2023-12-20T06:39:03;2.40;;;2.30;;
9374;SDS011;4727;51.202;6.344;2023-12-20T06:41:30;11.33;;;2.80;;
9374;SDS011;4727;51.202;6.344;2023-12-20T06:43:56;5.63;;;2.27;;
9374;SDS011;4727;51.202;6.344;2023-12-20T06:46:22;6.63;;;3.43;;
9374;SDS011;4727;51.202;6.344;2023-12-20T06:48:48;4.30;;;2.43;;
9374;SDS011;4727;51.202;6.344;2023-12-20T06:51:14;4.33;;;2.23;;
9374;SDS011;4727;51.202;6.344;2023-12-20T06:53:41;11.77;;;3.30;;
9374;SDS011;4727;51.202;6.344;2023-12-20T06:56:07;17.53;;;3.97;;
9374;SDS011;4727;51.202;6.344;2023-12-20T06:58:33;9.13;;;3.00;;
9374;SDS011;4727;51.202;6.344;2023-12-20T07:01:00;7.30;;;3.07;;
9374;SDS011;4727;51.202;6.344;2023-12-20T07:03:26;8.43;;;2.47;;
9374;SDS011;4727;51.202;6.344;2023-12-20T07:05:52;8.20;;;2.77;;
9374;SDS011;4727;51.202;6.344;2023-12-20T07:08:20;9.90;;;4.50;;
9374;SDS011;4727;51.202;6.344;2023-12-20T07:10:51;13.63;;;3.40;;
9374;SDS011;4727;51.202;6.344;2023-12-20T07:13:17;7.03;;;2.87;;
9374;SDS011;4727;51.202;6.344;2023-12-20T07:15:43;5.57;;;3.07;;
9374;SDS011;4727;51.202;6.344;2023-12-20T07:18:09;5.70;;;3.13;;
9374;SDS011;4727;51.202;6.344;2023-12-20T07:20:35;3.70;;;2.93;;
9374;SDS011;4727;51.202;6.344;2023-12-20T07:23:02;4.43;;;3.23;;
9374;SDS011;4727;51.202;6.344;2023-12-20T07:25:28;6.07;;;3.23;;
9374;SDS011;4727;51.202;6.344;2023-12-20T07:27:55;3.10;;;2.60;;
9374;SDS011;4727;51.202;6.344;2023-12-20T07:30:21;6.20;;;3.10;;
9374;SDS011;4727;51.202;6.344;2023-12-20T07:32:47;5.33;;;3.27;;
9374;SDS011;4727;51.202;6.344;2023-12-20T07:35:13;8.60;;;4.00;;
9374;SDS011;4727;51.202;6.344;2023-12-20T07:37:39;5.80;;;3.43;;
9374;SDS011;4727;51.202;6.344;2023-12-20T07:40:05;9.77;;;3.57;;
9374;SDS011;4727;51.202;6.344;2023-12-20T07:42:32;4.63;;;2.60;;
9374;SDS011;4727;51.202;6.344;2023-12-20T07:44:58;8.13;;;2.97;;
9374;SDS011;4727;51.202;6.344;2023-12-20T07:47:26;3.63;;;2.97;;
9374;SDS011;4727;51.202;6.344;2023-12-20T07:49:52;13.50;;;3.20;;
9374;SDS011;4727;51.202;6.344;2023-12-20T07:52:18;5.50;;;2.77;;
9374;SDS011;4727;51.202;6.344;2023-12-20T07:54:45;11.43;;;3.50;;
9374;SDS011;4727;51.202;6.344;2023-12-20T07:57:11;5.53;;;3.30;;
9374;SDS011;4727;51.202;6.344;2023-12-20T07:59:37;5.43;;;2.30;;
9374;SDS011;4727;51.202;6.344;2023-12-20T08:02:03;2.83;;;2.60;;
9374;SDS011;4727;51.202;6.344;2023-12-20T08:04:29;4.60;;;2.50;;
9374;SDS011;4727;51.202;6.344;2023-12-20T08:06:55;8.10;;;3.77;;
9374;SDS011;4727;51.202;6.344;2023-12-20T08:09:21;4.70;;;2.90;;
9374;SDS011;4727;51.202;6.344;2023-12-20T08:11:47;6.30;;;2.83;;
9374;SDS011;4727;51.202;6.344;2023-12-20T08:14:13;3.43;;;2.60;;
9374;SDS011;4727;51.202;6.344;2023-12-20T08:16:39;4.20;;;2.63;;
9374;SDS011;4727;51.202;6.344;2023-12-20T08:19:05;6.37;;;2.77;;
9374;SDS011;4727;51.202;6.344;2023-12-20T08:21:31;6.07;;;2.13;;
9374;SDS011;4727;51.202;6.344;2023-12-20T08:23:57;6.67;;;4.07;;
9374;SDS011;4727;51.202;6.344;2023-12-20T08:26:25;3.63;;;1.90;;
9374;SDS011;4727;51.202;6.344;2023-12-20T08:28:51;6.87;;;2.87;;
9374;SDS011;4727;51.202;6.344;2023-12-20T08:31:17;5.27;;;3.33;;
9374;SDS011;4727;51.202;6.344;2023-12-20T08:33:44;4.40;;;2.27;;
9374;SDS011;4727;51.202;6.344;2023-12-20T08:36:10;8.93;;;3.30;;
9374;SDS011;4727;51.202;6.344;2023-12-20T08:38:36;5.27;;;2.43;;
9374;SDS011;4727;51.202;6.344;2023-12-20T08:41:02;8.17;;;3.13;;
9374;SDS011;4727;51.202;6.344;2023-12-20T08:43:30;4.80;;;3.17;;
9374;SDS011;4727;51.202;6.344;2023-12-20T08:45:56;7.27;;;3.60;;
9374;SDS011;4727;51.202;6.344;2023-12-20T08:48:22;6.67;;;3.03;;
9374;SDS011;4727;51.202;6.344;2023-12-20T08:50:48;8.93;;;2.63;;
9374;SDS011;4727;51.202;6.344;2023-12-20T08:53:16;3.90;;;1.63;;
9374;SDS011;4727;51.202;6.344;2023-12-20T08:55:43;7.43;;;3.10;;
9374;SDS011;4727;51.202;6.344;2023-12-20T08:58:09;4.97;;;3.03;;
9374;SDS011;4727;51.202;6.344;2023-12-20T09:00:35;3.83;;;2.67;;
9374;SDS011;4727;51.202;6.344;2023-12-20T09:03:01;5.00;;;2.43;;
9374;SDS011;4727;51.202;6.344;2023-12-20T09:05:27;4.37;;;2.37;;
9374;SDS011;4727;51.202;6.344;2023-12-20T09:07:54;4.50;;;1.90;;
9374;SDS011;4727;51.202;6.344;2023-12-20T09:10:20;5.83;;;2.13;;
9374;SDS011;4727;51.202;6.344;2023-12-20T09:12:50;2.07;;;1.97;;
9374;SDS011;4727;51.202;6.344;2023-12-20T09:15:18;5.97;;;1.87;;
9374;SDS011;4727;51.202;6.344;2023-12-20T09:17:46;4.53;;;2.07;;
9374;SDS011;4727;51.202;6.344;2023-12-20T09:20:12;4.50;;;1.47;;
9374;SDS011;4727;51.202;6.344;2023-12-20T09:22:39;4.80;;;2.37;;
9374;SDS011;4727;51.202;6.344;2023-12-20T09:25:06;7.57;;;2.80;;
9374;SDS011;4727;51.202;6.344;2023-12-20T09:27:35;2.73;;;2.53;;
9374;SDS011;4727;51.202;6.344;2023-12-20T09:30:01;7.00;;;2.47;;
9374;SDS011;4727;51.202;6.344;2023-12-20T09:32:27;8.80;;;2.53;;
9374;SDS011;4727;51.202;6.344;2023-12-20T09:34:54;5.27;;;2.43;;
9374;SDS011;4727;51.202;6.344;2023-12-20T09:37:20;6.63;;;2.97;;
9374;SDS011;4727;51.202;6.344;2023-12-20T09:39:46;5.07;;;2.37;;
9374;SDS011;4727;51.202;6.344;2023-12-20T09:42:14;2.97;;;2.10;;
9374;SDS011;4727;51.202;6.344;2023-12-20T09:44:42;6.73;;;2.53;;
9374;SDS011;4727;51.202;6.344;2023-12-20T09:47:09;3.37;;;2.30;;
9374;SDS011;4727;51.202;6.344;2023-12-20T09:49:35;2.43;;;2.03;;
9374;SDS011;4727;51.202;6.344;2023-12-20T09:52:02;5.43;;;2.33;;
9374;SDS011;4727;51.202;6.344;2023-12-20T09:54:31;7.47;;;1.87;;
9374;SDS011;4727;51.202;6.344;2023-12-20T09:56:57;6.57;;;2.57;;
9374;SDS011;4727;51.202;6.344;2023-12-20T09:59:26;4.83;;;2.47;;
9374;SDS011;4727;51.202;6.344;2023-12-20T10:01:52;2.73;;;1.80;;
9374;SDS011;4727;51.202;6.344;2023-12-20T10:04:20;2.70;;;2.50;;
9374;SDS011;4727;51.202;6.344;2023-12-20T10:06:46;5.33;;;1.77;;
9374;SDS011;4727;51.202;6.344;2023-12-20T10:09:13;7.33;;;2.00;;
9374;SDS011;4727;51.202;6.344;2023-12-20T10:11:39;7.40;;;2.00;;
9374;SDS011;4727;51.202;6.344;2023-12-20T10:14:06;5.33;;;2.30;;
9374;SDS011;4727;51.202;6.344;2023-12-20T10:16:32;5.83;;;2.30;;
9374;SDS011;4727;51.202;6.344;2023-12-20T10:18:59;3.13;;;1.60;;
9374;SDS011;4727;51.202;6.344;2023-12-20T10:21:26;7.10;;;2.63;;
9374;SDS011;4727;51.202;6.344;2023-12-20T10:23:55;3.50;;;1.30;;
9374;SDS011;4727;51.202;6.344;2023-12-20T10:26:23;4.67;;;2.77;;
9374;SDS011;4727;51.202;6.344;2023-12-20T10:28:54;6.13;;;2.27;;
9374;SDS011;4727;51.202;6.344;2023-12-20T10:33:53;6.87;;;2.80;;
9374;SDS011;4727;51.202;6.344;2023-12-20T10:36:19;2.47;;;1.80;;
9374;SDS011;4727;51.202;6.344;2023-12-20T10:38:45;1.90;;;1.80;;
9374;SDS011;4727;51.202;6.344;2023-12-20T10:41:11;3.97;;;1.90;;
9374;SDS011;4727;51.202;6.344;2023-12-20T10:43:38;13.50;;;2.80;;
9374;SDS011;4727;51.202;6.344;2023-12-20T10:46:07;6.63;;;2.03;;
9374;SDS011;4727;51.202;6.344;2023-12-20T10:48:36;6.10;;;2.57;;
9374;SDS011;4727;51.202;6.344;2023-12-20T10:51:04;6.80;;;2.13;;
9374;SDS011;4727;51.202;6.344;2023-12-20T10:53:30;5.50;;;2.57;;
9374;SDS011;4727;51.202;6.344;2023-12-20T10:55:57;6.40;;;3.27;;
9374;SDS011;4727;51.202;6.344;2023-12-20T10:58:27;7.03;;;2.63;;
9374;SDS011;4727;51.202;6.344;2023-12-20T11:00:59;6.53;;;2.83;;
9374;SDS011;4727;51.202;6.344;2023-12-20T11:03:28;1.90;;;1.60;;
9374;SDS011;4727;51.202;6.344;2023-12-20T11:06:00;8.90;;;2.23;;
9374;SDS011;4727;51.202;6.344;2023-12-20T11:08:58;5.63;;;2.80;;
9374;SDS011;4727;51.202;6.344;2023-12-20T11:11:37;3.17;;;1.83;;
9374;SDS011;4727;51.202;6.344;2023-12-20T11:14:20;3.70;;;2.13;;
9374;SDS011;4727;51.202;6.344;2023-12-20T11:16:50;7.93;;;1.80;;
9374;SDS011;4727;51.202;6.344;2023-12-20T11:19:16;3.07;;;2.13;;
9374;SDS011;4727;51.202;6.344;2023-12-20T11:21:42;2.77;;;2.57;;
9374;SDS011;4727;51.202;6.344;2023-12-20T11:24:09;2.60;;;1.90;;
9374;SDS011;4727;51.202;6.344;2023-12-20T11:26:35;4.00;;;1.50;;
9374;SDS011;4727;51.202;6.344;2023-12-20T11:31:54;2.13;;;1.67;;
9374;SDS011;4727;51.202;6.344;2023-12-20T11:34:20;4.83;;;1.40;;
9374;SDS011;4727;51.202;6.344;2023-12-20T11:36:46;6.20;;;3.17;;
9374;SDS011;4727;51.202;6.344;2023-12-20T11:39:12;10.60;;;2.47;;
9374;SDS011;4727;51.202;6.344;2023-12-20T11:41:46;2.43;;;2.20;;
9374;SDS011;4727;51.202;6.344;2023-12-20T11:44:12;3.70;;;2.27;;
9374;SDS011;4727;51.202;6.344;2023-12-20T11:46:38;7.33;;;2.60;;
9374;SDS011;4727;51.202;6.344;2023-12-20T11:49:04;5.43;;;1.77;;
9374;SDS011;4727;51.202;6.344;2023-12-20T11:51:30;4.47;;;2.10;;
9374;SDS011;4727;51.202;6.344;2023-12-20T11:56:32;2.63;;;2.43;;
9374;SDS011;4727;51.202;6.344;2023-12-20T11:58:58;4.20;;;2.70;;
9374;SDS011;4727;51.202;6.344;2023-12-20T12:01:24;2.80;;;2.23;;
9374;SDS011;4727;51.202;6.344;2023-12-20T12:04:01;1.93;;;1.77;;
9374;SDS011;4727;51.202;6.344;2023-12-20T12:06:30;4.20;;;2.13;;
9374;SDS011;4727;51.202;6.344;2023-12-20T12:08:56;3.27;;;2.00;;
9374;SDS011;4727;51.202;6.344;2023-12-20T12:11:22;4.53;;;1.93;;
9374;SDS011;4727;51.202;6.344;2023-12-20T12:13:48;1.37;;;1.07;;
9374;SDS011;4727;51.202;6.344;2023-12-20T12:16:18;2.70;;;2.50;;
9374;SDS011;4727;51.202;6.344;2023-12-20T12:18:45;5.47;;;2.63;;
9374;SDS011;4727;51.202;6.344;2023-12-20T12:21:18;4.97;;;2.33;;
9374;SDS011;4727;51.202;6.344;2023-12-20T12:23:45;4.47;;;2.30;;
9374;SDS011;4727;51.202;6.344;2023-12-20T12:26:11;7.33;;;2.33;;
9374;SDS011;4727;51.202;6.344;2023-12-20T12:28:39;2.97;;;2.30;;
9374;SDS011;4727;51.202;6.344;2023-12-20T12:31:06;5.30;;;1.60;;
9374;SDS011;4727;51.202;6.344;2023-12-20T12:33:32;2.20;;;2.00;;
9374;SDS011;4727;51.202;6.344;2023-12-20T12:35:59;3.83;;;2.27;;
9374;SDS011;4727;51.202;6.344;2023-12-20T12:38:30;2.60;;;2.07;;
9374;SDS011;4727;51.202;6.344;2023-12-20T12:40:56;1.80;;;1.70;;
9374;SDS011;4727;51.202;6.344;2023-12-20T12:43:22;2.70;;;2.50;;
9374;SDS011;4727;51.202;6.344;2023-12-20T12:45:48;4.30;;;2.33;;
9374;SDS011;4727;51.202;6.344;2023-12-20T12:48:14;6.10;;;2.20;;
9374;SDS011;4727;51.202;6.344;2023-12-20T12:50:40;4.50;;;2.60;;
9374;SDS011;4727;51.202;6.344;2023-12-20T12:53:06;6.53;;;2.53;;
9374;SDS011;4727;51.202;6.344;2023-12-20T12:55:32;3.20;;;2.43;;
9374;SDS011;4727;51.202;6.344;2023-12-20T12:57:59;5.30;;;2.37;;
9374;SDS011;4727;51.202;6.344;2023-12-20T13:00:25;2.63;;;2.33;;
9374;SDS011;4727;51.202;6.344;2023-12-20T13:02:51;1.93;;;1.73;;
9374;SDS011;4727;51.202;6.344;2023-12-20T13:05:17;3.70;;;2.37;;
9374;SDS011;4727;51.202;6.344;2023-12-20T13:07:43;3.60;;;2.57;;
9374;SDS011;4727;51.202;6.344;2023-12-20T13:10:10;3.20;;;2.30;;
9374;SDS011;4727;51.202;6.344;2023-12-20T13:12:36;4.67;;;2.70;;
9374;SDS011;4727;51.202;6.344;2023-12-20T13:15:02;3.13;;;2.13;;
9374;SDS011;4727;51.202;6.344;2023-12-20T13:17:29;2.90;;;2.53;;
9374;SDS011;4727;51.202;6.344;2023-12-20T13:19:55;3.17;;;2.87;;
9374;SDS011;4727;51.202;6.344;2023-12-20T13:22:21;5.07;;;2.40;;
9374;SDS011;4727;51.202;6.344;2023-12-20T13:24:47;2.80;;;2.20;;
9374;SDS011;4727;51.202;6.344;2023-12-20T13:27:13;8.00;;;3.00;;
9374;SDS011;4727;51.202;6.344;2023-12-20T13:29:39;2.20;;;2.10;;
9374;SDS011;4727;51.202;6.344;2023-12-20T13:32:05;1.30;;;1.30;;
9374;SDS011;4727;51.202;6.344;2023-12-20T13:34:31;7.50;;;2.70;;
9374;SDS011;4727;51.202;6.344;2023-12-20T13:36:57;5.87;;;2.23;;
9374;SDS011;4727;51.202;6.344;2023-12-20T13:39:23;3.87;;;2.43;;
9374;SDS011;4727;51.202;6.344;2023-12-20T13:41:49;5.20;;;3.33;;
9374;SDS011;4727;51.202;6.344;2023-12-20T13:44:15;2.77;;;2.00;;
9374;SDS011;4727;51.202;6.344;2023-12-20T13:46:41;5.50;;;3.10;;
9374;SDS011;4727;51.202;6.344;2023-12-20T13:49:07;2.80;;;2.60;;
9374;SDS011;4727;51.202;6.344;2023-12-20T13:51:33;4.53;;;3.17;;
9374;SDS011;4727;51.202;6.344;2023-12-20T13:53:59;5.17;;;2.87;;
9374;SDS011;4727;51.202;6.344;2023-12-20T13:56:25;9.53;;;3.57;;
9374;SDS011;4727;51.202;6.344;2023-12-20T13:58:51;4.43;;;3.07;;
9374;SDS011;4727;51.202;6.344;2023-12-20T14:01:17;7.53;;;3.40;;
9374;SDS011;4727;51.202;6.344;2023-12-20T14:03:43;2.83;;;2.63;;
9374;SDS011;4727;51.202;6.344;2023-12-20T14:06:09;4.83;;;3.70;;
9374;SDS011;4727;51.202;6.344;2023-12-20T14:08:35;6.90;;;2.93;;
9374;SDS011;4727;51.202;6.344;2023-12-20T14:11:02;3.43;;;2.43;;
9374;SDS011;4727;51.202;6.344;2023-12-20T14:13:28;5.63;;;2.47;;
9374;SDS011;4727;51.202;6.344;2023-12-20T14:15:54;6.77;;;2.50;;
9374;SDS011;4727;51.202;6.344;2023-12-20T14:18:20;3.57;;;3.23;;
9374;SDS011;4727;51.202;6.344;2023-12-20T14:20:47;7.23;;;2.67;;
9374;SDS011;4727;51.202;6.344;2023-12-20T14:23:13;3.73;;;2.13;;
9374;SDS011;4727;51.202;6.344;2023-12-20T14:25:42;3.87;;;2.50;;
9374;SDS011;4727;51.202;6.344;2023-12-20T14:28:08;1.87;;;1.80;;
9374;SDS011;4727;51.202;6.344;2023-12-20T14:30:35;2.80;;;2.60;;
9374;SDS011;4727;51.202;6.344;2023-12-20T14:33:03;6.90;;;3.53;;
9374;SDS011;4727;51.202;6.344;2023-12-20T14:35:29;4.07;;;2.50;;
9374;SDS011;4727;51.202;6.344;2023-12-20T14:37:55;3.13;;;2.23;;
9374;SDS011;4727;51.202;6.344;2023-12-20T14:40:21;4.30;;;2.87;;
9374;SDS011;4727;51.202;6.344;2023-12-20T14:42:46;8.60;;;3.07;;
9374;SDS011;4727;51.202;6.344;2023-12-20T14:45:14;4.80;;;2.00;;
9374;SDS011;4727;51.202;6.344;2023-12-20T14:47:41;6.70;;;2.83;;
9374;SDS011;4727;51.202;6.344;2023-12-20T14:50:07;4.10;;;2.67;;
9374;SDS011;4727;51.202;6.344;2023-12-20T14:52:33;4.73;;;2.77;;
9374;SDS011;4727;51.202;6.344;2023-12-20T14:54:59;7.23;;;2.97;;
9374;SDS011;4727;51.202;6.344;2023-12-20T14:57:28;3.57;;;2.73;;
9374;SDS011;4727;51.202;6.344;2023-12-20T14:59:54;5.13;;;2.37;;
9374;SDS011;4727;51.202;6.344;2023-12-20T15:02:21;8.47;;;2.57;;
9374;SDS011;4727;51.202;6.344;2023-12-20T15:04:47;6.40;;;2.63;;
9374;SDS011;4727;51.202;6.344;2023-12-20T15:07:13;4.03;;;2.37;;
9374;SDS011;4727;51.202;6.344;2023-12-20T15:09:39;3.37;;;3.03;;
9374;SDS011;4727;51.202;6.344;2023-12-20T15:12:09;4.30;;;2.53;;
9374;SDS011;4727;51.202;6.344;2023-12-20T15:14:35;3.60;;;2.43;;
9374;SDS011;4727;51.202;6.344;2023-12-20T15:17:02;5.53;;;3.50;;
9374;SDS011;4727;51.202;6.344;2023-12-20T15:19:29;3.77;;;2.97;;
9374;SDS011;4727;51.202;6.344;2023-12-20T15:21:56;2.20;;;2.10;;
9374;SDS011;4727;51.202;6.344;2023-12-20T15:24:24;4.17;;;3.00;;
9374;SDS011;4727;51.202;6.344;2023-12-20T15:26:53;5.60;;;2.17;;
9374;SDS011;4727;51.202;6.344;2023-12-20T15:29:20;7.00;;;2.90;;
9374;SDS011;4727;51.202;6.344;2023-12-20T15:31:47;2.27;;;1.37;;
9374;SDS011;4727;51.202;6.344;2023-12-20T15:34:13;5.53;;;2.50;;
9374;SDS011;4727;51.202;6.344;2023-12-20T15:36:40;5.83;;;2.50;;
9374;SDS011;4727;51.202;6.344;2023-12-20T15:39:07;3.60;;;2.10;;
9374;SDS011;4727;51.202;6.344;2023-12-20T15:41:33;2.43;;;2.23;;
9374;SDS011;4727;51.202;6.344;2023-12-20T15:44:00;2.10;;;1.90;;
9374;SDS011;4727;51.202;6.344;2023-12-20T15:46:26;2.57;;;2.17;;
9374;SDS011;4727;51.202;6.344;2023-12-20T15:48:52;3.40;;;3.00;;
9374;SDS011;4727;51.202;6.344;2023-12-20T15:51:19;2.60;;;2.40;;
9374;SDS011;4727;51.202;6.344;2023-12-20T15:53:45;5.63;;;3.60;;
9374;SDS011;4727;51.202;6.344;2023-12-20T15:56:11;3.50;;;3.20;;
9374;SDS011;4727;51.202;6.344;2023-12-20T15:58:37;7.57;;;3.33;;
9374;SDS011;4727;51.202;6.344;2023-12-20T16:01:03;4.90;;;2.30;;
9374;SDS011;4727;51.202;6.344;2023-12-20T16:03:29;3.80;;;3.30;;
9374;SDS011;4727;51.202;6.344;2023-12-20T16:05:55;12.83;;;3.70;;
9374;SDS011;4727;51.202;6.344;2023-12-20T16:08:23;4.40;;;2.80;;
9374;SDS011;4727;51.202;6.344;2023-12-20T16:10:49;4.57;;;3.70;;